createdAt,value
2022-12-09T00:02:14.493Z,13.13
2022-12-09T00:04:41.236Z,13.90
2022-12-09T00:07:07.712Z,15.53
2022-12-09T00:09:33.947Z,16.30
2022-12-09T00:12:00.302Z,15.47
2022-12-09T00:14:26.554Z,16.13
2022-12-09T00:16:53.442Z,16.17
2022-12-09T00:19:19.805Z,14.27
2022-12-09T00:21:46.251Z,15.70
2022-12-09T00:24:13.468Z,15.37
2022-12-09T00:26:40.438Z,14.77
2022-12-09T00:29:06.810Z,15.30
2022-12-09T00:31:34.323Z,16.00
2022-12-09T00:34:02.493Z,14.57
2022-12-09T00:36:29.364Z,15.77
2022-12-09T00:38:56.749Z,16.13
2022-12-09T00:41:23.415Z,15.93
2022-12-09T00:43:49.644Z,15.97
2022-12-09T00:46:16.065Z,16.20
2022-12-09T00:48:42.686Z,17.17
2022-12-09T00:51:10.381Z,16.90
2022-12-09T00:53:36.737Z,16.00
2022-12-09T00:56:03.133Z,16.97
2022-12-09T00:58:29.621Z,15.93
2022-12-09T01:00:56.213Z,16.57
2022-12-09T01:03:22.886Z,16.57
2022-12-09T01:05:49.980Z,15.67
2022-12-09T01:08:16.646Z,15.77
2022-12-09T01:10:43.790Z,15.27
2022-12-09T01:13:10.609Z,16.40
2022-12-09T01:15:37.386Z,16.37
2022-12-09T01:18:05.082Z,16.37
2022-12-09T01:20:31.557Z,16.67
2022-12-09T01:22:58.252Z,15.50
2022-12-09T01:25:24.496Z,17.13
2022-12-09T01:27:50.751Z,19.53
2022-12-09T01:30:17.258Z,17.27
2022-12-09T01:32:43.807Z,17.70
2022-12-09T01:35:10.111Z,16.70
2022-12-09T01:37:36.743Z,16.17
2022-12-09T01:40:07.719Z,16.60
2022-12-09T01:42:34.492Z,16.47
2022-12-09T01:45:19.799Z,15.77
2022-12-09T01:47:51.349Z,16.90
2022-12-09T01:50:18.256Z,16.63
2022-12-09T01:52:45.378Z,15.93
2022-12-09T01:55:11.758Z,16.00
2022-12-09T01:57:38.583Z,16.13
2022-12-09T02:00:06.160Z,15.90
2022-12-09T02:02:34.841Z,16.20
2022-12-09T02:05:02.169Z,17.47
2022-12-09T02:07:28.788Z,16.57
2022-12-09T02:09:55.134Z,15.93
2022-12-09T02:12:33.744Z,16.27
2022-12-09T02:15:02.126Z,15.70
2022-12-09T02:17:31.473Z,16.50
2022-12-09T02:20:16.767Z,16.10
2022-12-09T02:22:47.685Z,15.77
2022-12-09T02:25:32.702Z,15.77
2022-12-09T02:28:12.924Z,15.10
2022-12-09T02:30:50.378Z,15.87
2022-12-09T02:33:20.020Z,15.80
2022-12-09T02:35:54.975Z,15.40
2022-12-09T02:38:23.001Z,14.70
2022-12-09T02:41:07.898Z,14.53
2022-12-09T02:43:36.726Z,15.63
2022-12-09T02:46:05.349Z,14.77
2022-12-09T02:48:33.155Z,15.03
2022-12-09T02:51:03.044Z,15.50
2022-12-09T02:53:31.119Z,14.73
2022-12-09T02:55:57.846Z,14.63
2022-12-09T02:58:24.197Z,14.17
2022-12-09T03:00:52.232Z,14.40
2022-12-09T03:03:19.214Z,14.70
2022-12-09T03:05:49.664Z,14.20
2022-12-09T03:08:31.632Z,13.87
2022-12-09T03:10:58.040Z,14.70
2022-12-09T03:13:33.339Z,14.37
2022-12-09T03:16:04.389Z,15.27
2022-12-09T03:18:33.451Z,14.13
2022-12-09T03:21:00.941Z,13.63
2022-12-09T03:23:28.402Z,13.00
2022-12-09T03:25:55.472Z,13.97
2022-12-09T03:28:29.121Z,12.97
2022-12-09T03:30:56.861Z,12.70
2022-12-09T03:33:24.335Z,13.13
2022-12-09T03:35:53.004Z,13.40
2022-12-09T03:38:20.479Z,13.47
2022-12-09T03:40:50.221Z,13.13
2022-12-09T03:43:21.543Z,13.20
2022-12-09T03:45:48.221Z,13.53
2022-12-09T03:48:14.643Z,12.63
2022-12-09T03:50:54.207Z,13.23
2022-12-09T03:53:22.688Z,13.83
2022-12-09T03:56:02.062Z,13.63
2022-12-09T03:58:29.541Z,14.23
2022-12-09T04:00:56.037Z,12.90
2022-12-09T04:03:22.622Z,13.10
2022-12-09T04:05:49.036Z,13.60
2022-12-09T04:08:15.366Z,13.20
2022-12-09T04:10:42.277Z,13.23
2022-12-09T04:13:08.579Z,13.53
2022-12-09T04:15:34.844Z,13.13
2022-12-09T04:18:01.546Z,13.67
2022-12-09T04:20:28.040Z,12.37
2022-12-09T04:22:55.607Z,12.47
2022-12-09T04:25:21.855Z,12.77
2022-12-09T04:27:48.121Z,13.90
2022-12-09T04:30:14.719Z,13.60
2022-12-09T04:32:41.292Z,12.43
2022-12-09T04:35:08.219Z,14.47
2022-12-09T04:37:35.036Z,13.80
2022-12-09T04:40:02.442Z,12.80
2022-12-09T04:42:29.129Z,13.83
2022-12-09T04:44:55.856Z,12.83
2022-12-09T04:47:22.237Z,13.93
2022-12-09T04:49:48.641Z,12.73
2022-12-09T04:52:16.833Z,13.17
2022-12-09T04:54:43.108Z,13.20
2022-12-09T04:57:09.822Z,12.80
2022-12-09T04:59:36.291Z,13.03
2022-12-09T05:02:02.984Z,12.10
2022-12-09T05:04:29.684Z,13.40
2022-12-09T05:06:56.472Z,12.60
2022-12-09T05:09:23.105Z,12.87
2022-12-09T05:11:49.652Z,12.93
2022-12-09T05:14:16.449Z,12.27
2022-12-09T05:16:42.920Z,12.40
2022-12-09T05:19:09.824Z,12.90
2022-12-09T05:21:36.943Z,12.37
2022-12-09T05:24:03.742Z,12.30
2022-12-09T05:26:30.103Z,12.60
2022-12-09T05:28:56.689Z,13.17
2022-12-09T05:31:23.740Z,12.53
2022-12-09T05:33:51.382Z,12.60
2022-12-09T05:36:19.542Z,13.17
2022-12-09T05:38:46.458Z,12.63
2022-12-09T05:41:13.434Z,12.70
2022-12-09T05:43:40.189Z,12.63
2022-12-09T05:46:07.083Z,12.90
2022-12-09T05:48:34.486Z,13.33
2022-12-09T05:51:02.843Z,12.97
2022-12-09T05:53:29.737Z,13.17
2022-12-09T05:55:56.508Z,13.33
2022-12-09T05:58:24.044Z,12.33
2022-12-09T06:00:50.798Z,13.53
2022-12-09T06:03:17.302Z,11.97
2022-12-09T06:05:44.281Z,12.23
2022-12-09T06:08:10.683Z,13.07
2022-12-09T06:10:41.181Z,12.77
2022-12-09T06:13:08.651Z,13.23
2022-12-09T06:15:35.331Z,12.70
2022-12-09T06:18:02.077Z,12.93
2022-12-09T06:20:28.654Z,13.67
2022-12-09T06:22:55.267Z,13.33
2022-12-09T06:25:21.600Z,13.03
2022-12-09T06:27:48.042Z,12.87
2022-12-09T06:30:14.436Z,12.47
2022-12-09T06:32:40.853Z,12.63
2022-12-09T06:35:08.229Z,13.77
2022-12-09T06:37:34.965Z,14.43
2022-12-09T06:40:01.409Z,13.67
2022-12-09T06:42:27.767Z,13.50
2022-12-09T06:44:54.051Z,13.33
2022-12-09T06:47:20.651Z,13.63
2022-12-09T06:49:47.032Z,13.33
2022-12-09T06:52:13.591Z,13.60
2022-12-09T06:54:40.157Z,13.83
2022-12-09T06:57:06.774Z,14.57
2022-12-09T06:59:34.021Z,14.37
2022-12-09T07:02:03.763Z,13.83
2022-12-09T07:04:30.577Z,13.97
2022-12-09T07:06:57.565Z,14.10
2022-12-09T07:09:23.966Z,13.73
2022-12-09T07:11:51.562Z,14.50
2022-12-09T07:14:18.651Z,15.10
2022-12-09T07:16:45.544Z,14.33
2022-12-09T07:19:18.070Z,13.40
2022-12-09T07:21:44.957Z,14.10
2022-12-09T07:24:12.572Z,14.47
2022-12-09T07:26:39.400Z,13.90
2022-12-09T07:29:06.629Z,14.77
2022-12-09T07:31:33.834Z,14.70
2022-12-09T07:34:01.311Z,13.93
2022-12-09T07:36:29.554Z,14.80
2022-12-09T07:38:57.189Z,14.47
2022-12-09T07:41:24.322Z,14.07
2022-12-09T07:43:51.042Z,13.80
2022-12-09T07:46:18.624Z,14.30
2022-12-09T07:48:45.762Z,14.67
2022-12-09T07:51:12.709Z,15.10
2022-12-09T07:53:39.318Z,14.77
2022-12-09T07:56:07.908Z,14.60
2022-12-09T07:58:34.932Z,15.07
2022-12-09T08:01:07.573Z,15.03
2022-12-09T08:03:35.875Z,14.33
2022-12-09T08:06:02.792Z,14.87
2022-12-09T08:08:29.388Z,14.53
2022-12-09T08:10:56.389Z,15.33
2022-12-09T08:13:23.111Z,14.73
2022-12-09T08:15:49.552Z,15.17
2022-12-09T08:18:16.579Z,14.93
2022-12-09T08:20:43.177Z,15.40
2022-12-09T08:23:09.901Z,15.57
2022-12-09T08:25:36.646Z,15.70
2022-12-09T08:28:03.095Z,15.00
2022-12-09T08:30:29.561Z,14.97
2022-12-09T08:32:56.379Z,15.77
2022-12-09T08:35:23.028Z,15.70
2022-12-09T08:37:49.695Z,15.33
2022-12-09T08:40:16.705Z,14.83
2022-12-09T08:42:43.162Z,14.40
2022-12-09T08:45:09.974Z,16.37
2022-12-09T08:47:36.363Z,15.80
2022-12-09T08:50:03.118Z,14.93
2022-12-09T08:52:30.263Z,15.63
2022-12-09T08:54:57.986Z,15.23
2022-12-09T08:57:24.901Z,15.17
2022-12-09T08:59:51.334Z,14.27
2022-12-09T09:02:18.100Z,14.70
2022-12-09T09:04:44.627Z,14.20
2022-12-09T09:07:12.322Z,13.57
2022-12-09T09:09:39.668Z,12.80
2022-12-09T09:12:06.874Z,13.97
2022-12-09T09:14:33.475Z,14.03
2022-12-09T09:17:00.107Z,13.23
2022-12-09T09:19:27.052Z,14.47
2022-12-09T09:21:54.656Z,14.73
2022-12-09T09:24:22.955Z,14.77
2022-12-09T09:26:50.136Z,14.47
2022-12-09T09:29:18.203Z,13.23
2022-12-09T09:31:48.555Z,13.77
2022-12-09T09:34:17.315Z,13.93
2022-12-09T09:36:44.932Z,14.37
2022-12-09T09:39:11.847Z,14.03
2022-12-09T09:41:43.769Z,13.60
2022-12-09T09:44:20.508Z,14.30
2022-12-09T09:46:48.817Z,13.30
2022-12-09T09:49:33.753Z,13.40
2022-12-09T09:52:03.760Z,13.57
2022-12-09T09:54:31.705Z,14.30
2022-12-09T09:57:04.374Z,15.20
2022-12-09T09:59:37.443Z,15.00
2022-12-09T10:02:19.392Z,15.63
2022-12-09T10:04:46.094Z,16.50
2022-12-09T10:07:22.022Z,15.20
2022-12-09T10:09:54.771Z,15.27
2022-12-09T10:12:30.702Z,16.33
2022-12-09T10:15:03.566Z,16.23
2022-12-09T10:17:30.295Z,15.90
2022-12-09T10:20:06.498Z,16.90
2022-12-09T10:22:40.659Z,15.63
2022-12-09T10:25:18.680Z,15.47
2022-12-09T10:27:51.245Z,15.67
2022-12-09T10:30:18.835Z,15.03
2022-12-09T10:32:45.887Z,13.80
2022-12-09T10:35:24.695Z,14.50
2022-12-09T10:37:55.010Z,14.07
2022-12-09T10:40:40.230Z,13.40
2022-12-09T10:43:40.366Z,14.20
2022-12-09T10:46:19.535Z,14.50
2022-12-09T10:48:46.875Z,14.30
2022-12-09T10:51:15.797Z,12.87
2022-12-09T10:53:57.717Z,13.53
2022-12-09T10:56:29.173Z,12.83
2022-12-09T10:59:14.520Z,12.33
2022-12-09T11:01:52.204Z,11.90
2022-12-09T11:04:24.003Z,12.83
2022-12-09T11:06:57.298Z,12.00
2022-12-09T11:09:27.970Z,12.83
2022-12-09T11:11:55.060Z,12.07
2022-12-09T11:14:28.676Z,11.50
2022-12-09T11:16:57.257Z,10.47
2022-12-09T11:19:35.070Z,11.23
2022-12-09T11:22:20.612Z,12.23
2022-12-09T11:24:47.388Z,11.83
2022-12-09T11:27:27.378Z,11.50
2022-12-09T11:30:09.551Z,12.13
2022-12-09T11:32:51.205Z,10.90
2022-12-09T11:35:28.786Z,11.77
2022-12-09T11:37:55.924Z,11.50
2022-12-09T11:40:23.451Z,11.57
2022-12-09T11:42:51.619Z,12.77
2022-12-09T11:45:19.483Z,12.37
2022-12-09T11:50:33.965Z,13.07
2022-12-09T11:53:12.674Z,13.30
2022-12-09T11:55:44.306Z,12.67
2022-12-09T11:58:21.173Z,15.43
2022-12-09T12:00:59.761Z,16.27
2022-12-09T12:03:31.585Z,17.40
2022-12-09T12:06:00.487Z,18.03
2022-12-09T12:08:40.633Z,17.80
2022-12-09T12:11:11.971Z,16.73
2022-12-09T12:13:46.166Z,16.80
2022-12-09T12:16:21.719Z,15.67
2022-12-09T12:19:05.107Z,15.60
2022-12-09T12:21:49.169Z,15.40
2022-12-09T12:24:18.471Z,16.13
2022-12-09T12:26:50.595Z,17.83
2022-12-09T12:29:35.480Z,18.60
2022-12-09T12:32:01.780Z,19.50
2022-12-09T12:34:39.785Z,19.13
2022-12-09T12:37:12.215Z,18.73
2022-12-09T12:39:48.593Z,19.47
2022-12-09T12:42:21.028Z,22.13
2022-12-09T12:45:14.936Z,20.97
2022-12-09T12:47:41.206Z,21.90
2022-12-09T12:50:26.207Z,21.50
2022-12-09T12:53:18.601Z,23.07
2022-12-09T12:55:47.880Z,23.53
2022-12-09T12:58:20.488Z,23.93
2022-12-09T13:01:00.436Z,22.60
2022-12-09T13:03:33.533Z,23.27
2022-12-09T13:06:01.005Z,24.33
2022-12-09T13:08:42.925Z,25.27
2022-12-09T13:11:32.546Z,25.57
2022-12-09T13:14:04.769Z,26.10
2022-12-09T13:16:32.987Z,26.20
2022-12-09T13:19:06.050Z,25.83
2022-12-09T13:21:32.301Z,26.93
2022-12-09T13:24:02.523Z,24.43
2022-12-09T13:26:52.645Z,25.33
2022-12-09T13:29:41.309Z,25.63
2022-12-09T13:32:29.146Z,25.07
2022-12-09T13:35:10.597Z,24.70
2022-12-09T13:37:36.813Z,24.27
2022-12-09T13:40:04.878Z,23.30
2022-12-09T13:42:50.250Z,21.60
2022-12-09T13:45:18.534Z,21.90
2022-12-09T13:47:44.781Z,19.67
2022-12-09T13:50:30.970Z,18.50
2022-12-09T13:52:59.504Z,16.03
2022-12-09T13:55:25.694Z,16.13
2022-12-09T13:57:56.998Z,16.40
2022-12-09T14:00:23.286Z,15.10
2022-12-09T14:02:55.421Z,14.67
2022-12-09T14:05:23.547Z,13.97
2022-12-09T14:07:52.496Z,13.80
2022-12-09T14:10:37.771Z,14.03
2022-12-09T14:13:17.645Z,14.00
2022-12-09T14:15:44.825Z,14.73
2022-12-09T14:18:28.853Z,14.40
2022-12-09T14:21:13.667Z,15.37
2022-12-09T14:23:39.960Z,14.10
2022-12-09T14:26:08.397Z,17.30
2022-12-09T14:28:34.597Z,14.57
2022-12-09T14:31:08.145Z,14.03
2022-12-09T14:33:40.365Z,14.87
2022-12-09T14:36:12.813Z,14.47
2022-12-09T14:41:55.106Z,15.67
2022-12-09T14:44:39.765Z,14.13
2022-12-09T14:47:13.549Z,14.90
2022-12-09T14:49:48.471Z,14.97
2022-12-09T14:52:29.348Z,12.93
2022-12-09T14:54:57.346Z,13.83
2022-12-09T14:57:44.674Z,13.20
2022-12-09T15:00:31.345Z,14.13
2022-12-09T15:03:30.521Z,13.10
2022-12-09T15:06:01.006Z,14.00
2022-12-09T15:08:30.349Z,13.20
2022-12-09T15:10:56.773Z,13.83
2022-12-09T15:13:24.443Z,13.67
2022-12-09T15:15:50.744Z,14.60
2022-12-09T15:18:18.478Z,13.00
2022-12-09T15:20:48.659Z,14.07
2022-12-09T15:23:28.795Z,14.03
2022-12-09T15:25:56.122Z,12.87
2022-12-09T15:28:26.676Z,14.10
2022-12-09T15:30:57.875Z,13.67
2022-12-09T15:33:24.361Z,13.20
2022-12-09T15:35:56.235Z,14.87
2022-12-09T15:38:22.942Z,14.87
2022-12-09T15:41:12.442Z,14.87
2022-12-09T15:43:40.175Z,14.03
2022-12-09T15:46:06.592Z,13.30
2022-12-09T15:48:36.577Z,13.90
2022-12-09T15:51:05.786Z,14.37
2022-12-09T15:53:39.148Z,14.20
2022-12-09T15:56:26.445Z,14.33
2022-12-09T15:58:54.274Z,14.43
2022-12-09T16:01:32.272Z,14.77
2022-12-09T16:03:59.387Z,15.83
2022-12-09T16:06:29.582Z,15.10
2022-12-09T16:08:57.465Z,14.10
2022-12-09T16:11:34.574Z,14.93
2022-12-09T16:14:01.150Z,13.87
2022-12-09T16:16:42.487Z,13.27
2022-12-09T16:19:27.642Z,14.30
2022-12-09T16:21:55.197Z,13.10
2022-12-09T16:24:21.678Z,14.37
2022-12-09T16:26:49.219Z,14.50
2022-12-09T16:29:31.153Z,14.23
2022-12-09T16:32:12.856Z,15.33
2022-12-09T16:34:39.126Z,15.53
2022-12-09T16:37:20.316Z,15.57
2022-12-09T16:39:46.545Z,15.47
2022-12-09T16:42:35.348Z,16.33
2022-12-09T16:45:21.131Z,15.00
2022-12-09T16:47:47.691Z,15.63
2022-12-09T16:50:13.940Z,15.37
2022-12-09T16:52:40.189Z,15.63
2022-12-09T16:55:16.947Z,15.83
2022-12-09T16:57:43.503Z,16.37
2022-12-09T17:00:10.233Z,14.10
2022-12-09T17:02:39.385Z,14.90
2022-12-09T17:05:06.261Z,16.07
2022-12-09T17:07:32.754Z,16.73
2022-12-09T17:09:59.005Z,16.60
2022-12-09T17:12:25.250Z,18.17
2022-12-09T17:14:52.406Z,16.90
2022-12-09T17:17:20.961Z,17.30
2022-12-09T17:19:47.227Z,17.57
2022-12-09T17:22:13.472Z,18.03
2022-12-09T17:24:39.782Z,18.37
2022-12-09T17:27:06.008Z,18.23
2022-12-09T17:29:32.250Z,18.13
2022-12-09T17:31:58.573Z,19.20
2022-12-09T17:34:24.823Z,23.75
2022-12-09T17:36:51.089Z,19.67
2022-12-09T17:39:17.364Z,19.07
2022-12-09T17:41:43.736Z,18.70
2022-12-09T17:44:10.044Z,17.60
2022-12-09T17:46:36.257Z,18.17
2022-12-09T17:49:02.556Z,19.00
2022-12-09T17:51:34.050Z,18.17
2022-12-09T17:54:01.866Z,19.33
2022-12-09T17:56:28.134Z,18.77
2022-12-09T17:58:56.192Z,19.00
2022-12-09T18:01:23.024Z,19.57
2022-12-09T18:04:00.248Z,18.17
2022-12-09T18:06:34.375Z,19.20
2022-12-09T18:09:01.736Z,16.13
2022-12-09T18:11:28.147Z,16.40
2022-12-09T18:13:54.414Z,16.90
2022-12-09T18:16:20.929Z,15.20
2022-12-09T18:18:47.229Z,16.90
2022-12-09T18:21:15.987Z,17.50
2022-12-09T18:23:42.960Z,16.67
2022-12-09T18:26:10.204Z,16.37
2022-12-09T18:28:36.578Z,16.57
2022-12-09T18:31:07.227Z,17.23
2022-12-09T18:33:33.539Z,18.70
2022-12-09T18:35:59.780Z,19.27
2022-12-09T18:38:26.009Z,18.30
2022-12-09T18:41:01.169Z,18.87
2022-12-09T18:43:28.080Z,18.17
2022-12-09T18:45:54.339Z,19.33
2022-12-09T18:48:20.667Z,18.90
2022-12-09T18:50:46.869Z,19.27
2022-12-09T18:53:14.195Z,19.60
2022-12-09T18:55:41.428Z,18.50
2022-12-09T18:58:07.701Z,17.37
2022-12-09T19:00:33.939Z,17.10
2022-12-09T19:03:00.276Z,15.97
2022-12-09T19:05:26.505Z,16.30
2022-12-09T19:07:52.773Z,16.20
2022-12-09T19:10:19.037Z,15.07
2022-12-09T19:12:47.662Z,16.70
2022-12-09T19:15:14.274Z,16.57
2022-12-09T19:17:42.524Z,16.93
2022-12-09T19:20:09.261Z,15.93
2022-12-09T19:22:35.732Z,15.40
2022-12-09T19:25:05.012Z,15.77
2022-12-09T19:27:31.250Z,15.67
2022-12-09T19:29:57.465Z,14.87
2022-12-09T19:32:51.845Z,15.77
2022-12-09T19:35:10.127Z,15.90
2022-12-09T19:37:37.457Z,14.63
2022-12-09T19:40:03.879Z,15.60
2022-12-09T19:42:30.132Z,15.20
2022-12-09T19:45:01.921Z,14.97
2022-12-09T19:47:29.324Z,16.10
2022-12-09T19:49:55.583Z,14.97
2022-12-09T19:52:22.063Z,13.93
2022-12-09T19:54:48.308Z,14.77
2022-12-09T19:57:14.851Z,14.73
2022-12-09T19:59:41.077Z,15.17
2022-12-09T20:02:11.840Z,14.67
2022-12-09T20:04:50.747Z,15.47
2022-12-09T20:07:17.639Z,16.37
2022-12-09T20:09:43.868Z,17.57
2022-12-09T20:12:10.135Z,16.50
2022-12-09T20:14:36.364Z,14.97
2022-12-09T20:17:05.234Z,16.07
2022-12-09T20:19:31.481Z,14.93
2022-12-09T20:21:57.967Z,15.50
2022-12-09T20:24:26.693Z,14.87
2022-12-09T20:26:53.003Z,14.23
2022-12-09T20:29:19.273Z,14.83
2022-12-09T20:31:45.612Z,14.47
2022-12-09T20:34:13.050Z,14.57
2022-12-09T20:36:40.512Z,14.37
2022-12-09T20:39:12.464Z,13.87
2022-12-09T20:41:38.952Z,13.43
2022-12-09T20:44:05.269Z,14.70
2022-12-09T20:46:33.306Z,14.43
2022-12-09T20:48:59.877Z,14.83
2022-12-09T20:51:30.674Z,14.73
2022-12-09T20:53:57.477Z,14.67
2022-12-09T20:56:26.650Z,14.97
2022-12-09T20:58:53.703Z,14.23
2022-12-09T21:01:21.941Z,14.67
2022-12-09T21:03:48.867Z,15.93
2022-12-09T21:06:16.019Z,13.87
2022-12-09T21:08:42.523Z,15.30
2022-12-09T21:11:10.113Z,14.23
2022-12-09T21:13:37.673Z,13.87
2022-12-09T21:16:05.105Z,14.20
2022-12-09T21:18:31.614Z,14.70
2022-12-09T21:20:57.847Z,15.20
2022-12-09T21:23:39.134Z,16.10
2022-12-09T21:26:10.146Z,14.83
2022-12-09T21:28:37.202Z,14.40
2022-12-09T21:31:15.236Z,15.40
2022-12-09T21:33:42.209Z,15.43
2022-12-09T21:36:09.756Z,14.87
2022-12-09T21:38:36.484Z,14.97
2022-12-09T21:41:03.759Z,15.80
2022-12-09T21:43:31.225Z,14.93
2022-12-09T21:45:57.538Z,15.27
2022-12-09T21:48:23.781Z,15.60
2022-12-09T21:50:53.617Z,14.87
2022-12-09T21:53:19.836Z,14.97
2022-12-09T21:55:46.316Z,15.30
2022-12-09T21:58:12.543Z,15.40
2022-12-09T22:00:38.755Z,14.17
2022-12-09T22:03:05.107Z,14.13
2022-12-09T22:05:32.669Z,14.87
2022-12-09T22:07:59.328Z,13.83
2022-12-09T22:10:26.764Z,13.63
2022-12-09T22:12:53.812Z,13.60
2022-12-09T22:15:20.047Z,13.90
2022-12-09T22:17:46.327Z,13.00
2022-12-09T22:22:59.081Z,12.20
2022-12-09T22:25:25.563Z,12.70
2022-12-09T22:27:51.799Z,12.50
2022-12-09T22:30:18.350Z,13.13
2022-12-09T22:32:50.440Z,13.27
2022-12-09T22:35:17.105Z,12.03
2022-12-09T22:37:44.179Z,13.03
2022-12-09T22:40:11.098Z,13.90
2022-12-09T22:42:38.861Z,12.43
2022-12-09T22:45:05.698Z,12.83
2022-12-09T22:47:32.101Z,11.87
2022-12-09T22:49:58.353Z,11.57
2022-12-09T22:52:24.571Z,12.53
2022-12-09T22:54:50.791Z,12.83
2022-12-09T22:57:17.001Z,13.77
2022-12-09T22:59:43.359Z,11.83
2022-12-09T23:02:09.774Z,11.73
2022-12-09T23:04:36.410Z,12.17
2022-12-09T23:07:02.988Z,12.23
2022-12-09T23:09:29.229Z,11.87
2022-12-09T23:11:55.455Z,13.50
2022-12-09T23:14:21.761Z,13.40
2022-12-09T23:16:47.979Z,13.60
2022-12-09T23:19:14.837Z,12.77
2022-12-09T23:21:41.578Z,12.63
2022-12-09T23:24:10.275Z,12.03
2022-12-09T23:26:37.689Z,12.97
2022-12-09T23:29:05.281Z,12.27
2022-12-09T23:31:33.015Z,13.63
2022-12-09T23:33:59.818Z,12.70
2022-12-09T23:36:27.469Z,12.77
2022-12-09T23:38:54.039Z,12.27
2022-12-09T23:41:21.722Z,11.67
2022-12-09T23:43:48.465Z,12.27
2022-12-09T23:46:16.508Z,12.13
2022-12-09T23:48:43.481Z,11.90
2022-12-09T23:51:14.389Z,12.30
2022-12-09T23:53:41.212Z,12.00
2022-12-09T23:56:07.619Z,12.37
2022-12-09T23:58:34.141Z,11.83
